Main page
METAR-TAF:

METAR-TAF

Airports :

Fernando de Noronha Airport

Fernando de Noronha, Pernambuco, Brazil

latitude: 03-51S, longitude: 032-25W, elevation: 56 m

Current weather observation

The report was made 46 minutes ago, at 16:00 UTC
Wind 12 kt from the Southeast
Temperature 30°C
Humidity 79%
Pressure 1009 hPa
Visibility 10 km or more
Broken clouds at a height of 1700 ft

METAR: SBFN 211600Z 13012KT 9999 BKN017 30/26 Q1009

Time: 14:46 (16:46 UTC)

Forecast

The report was made 6 hours and 46 minutes ago, at 10:00 UTC
Forecast valid from 21 at 12 UTC to 21 at 24 UTC
Wind 10 kt from the East/Southeast
Visibility 10 km or more
Scattered clouds at a height of 2000 ft

TAF: SBFN 211000Z 2112/2124 12010KT 9999 SCT020 TX30/2114Z TN26/2122Z RMK PED

Weather observations and forecasts of more than 4000 airports (METAR and TAF reports).

The available stations are represented by yellow and red dots on the map.

Hover mouse over dot to see the name of the station.

Then click to see weather observations and forecasts.

To change the map : click on the green buttons with a black cross to zoom in, on the green button with a dash to zoom out, or on the green arrows for adjacent maps.


METAR-TAF: